Time;durP1;ratioP1;P1;durP2;ratioP2;P2;SDS_P1;SDS_P2;PMS_P1;PMS_P2;Temp;Humidity;BMP_temperature;BMP_pressure;BME280_temperature;BME280_humidity;BME280_pressure;Samples;Min_cycle;Max_cycle;Signal;HPM_P1;HPM_P2
2024/01/07 00:00:35;;;;;;;8.80;2.92;;;5.20;99.90;;;;;;5038391;28;20066;-73
2024/01/07 00:03:01;;;;;;;2.10;1.77;;;5.20;99.90;;;;;;5041779;28;20838;-71
2024/01/07 00:05:27;;;;;;;4.85;2.25;;;5.20;99.90;;;;;;5035922;28;20074;-72
2024/01/07 00:07:52;;;;;;;2.40;2.03;;;5.10;99.90;;;;;;5036248;28;20032;-72
2024/01/07 00:10:18;;;;;;;5.20;2.42;;;5.10;99.90;;;;;;5038904;28;20084;-70
2024/01/07 00:12:44;;;;;;;3.05;1.83;;;5.10;99.90;;;;;;5037066;28;20041;-71
2024/01/07 00:15:10;;;;;;;3.00;2.53;;;5.00;99.90;;;;;;5040928;28;20047;-72
2024/01/07 00:17:35;;;;;;;2.80;2.53;;;5.00;99.90;;;;;;5040587;28;20037;-72
2024/01/07 00:20:01;;;;;;;6.18;1.40;;;5.00;99.90;;;;;;5035514;28;20843;-71
2024/01/07 00:22:26;;;;;;;2.15;2.03;;;4.90;99.90;;;;;;5041648;28;20289;-72
2024/01/07 00:24:52;;;;;;;1.67;1.58;;;4.90;99.90;;;;;;5039954;28;20017;-71
2024/01/07 00:27:18;;;;;;;5.15;2.20;;;4.90;99.90;;;;;;5039529;28;20033;-72
2024/01/07 00:29:43;;;;;;;1.92;1.70;;;5.00;99.90;;;;;;5042170;28;20168;-71
2024/01/07 00:32:10;;;;;;;2.47;1.30;;;4.90;99.90;;;;;;5018520;28;20400;-71
2024/01/07 00:34:36;;;;;;;1.92;1.80;;;4.90;99.90;;;;;;5040237;28;20028;-71
2024/01/07 00:37:01;;;;;;;1.98;1.85;;;4.90;99.90;;;;;;5039026;28;20033;-71
2024/01/07 00:39:27;;;;;;;2.47;1.95;;;4.90;99.90;;;;;;5036664;28;20569;-72
2024/01/07 00:41:53;;;;;;;0.65;0.65;;;4.80;99.90;;;;;;5038514;28;20028;-72
2024/01/07 00:44:18;;;;;;;0.10;0.10;;;4.70;99.90;;;;;;5038791;28;20036;-72
2024/01/07 00:46:44;;;;;;;0.13;0.13;;;4.60;99.90;;;;;;5038010;28;20029;-71
2024/01/07 00:49:09;;;;;;;0.30;0.30;;;4.60;99.90;;;;;;5040828;28;20496;-71
2024/01/07 00:51:35;;;;;;;0.55;0.55;;;4.60;99.90;;;;;;5045812;28;20115;-71
2024/01/07 00:54:01;;;;;;;3.55;0.60;;;4.60;99.90;;;;;;5042001;28;20081;-71
2024/01/07 00:56:27;;;;;;;0.55;0.22;;;4.50;99.90;;;;;;5043922;28;20048;-71
2024/01/07 00:58:53;;;;;;;2.47;0.35;;;4.40;99.90;;;;;;5038982;28;20048;-71
2024/01/07 01:01:19;;;;;;;0.93;0.30;;;;;;;;;;5038421;28;20021;-71
2024/01/07 01:03:45;;;;;;;0.10;0.10;;;4.30;99.90;;;;;;5041993;28;20024;-71
2024/01/07 01:06:11;;;;;;;0.30;0.30;;;4.20;99.90;;;;;;5034148;28;20151;-71
2024/01/07 01:08:37;;;;;;;0.60;0.35;;;4.20;99.90;;;;;;5036525;28;20033;-72
2024/01/07 01:11:03;;;;;;;0.30;0.30;;;4.10;99.90;;;;;;5037893;28;20043;-71
2024/01/07 01:13:28;;;;;;;0.85;0.32;;;4.00;99.90;;;;;;5035067;28;20037;-71
2024/01/07 01:15:55;;;;;;;0.10;0.10;;;3.90;99.90;;;;;;5038512;28;20082;-71
2024/01/07 01:18:20;;;;;;;0.68;0.52;;;3.90;99.90;;;;;;5037571;28;20033;-72
2024/01/07 01:20:46;;;;;;;0.10;0.10;;;3.90;99.90;;;;;;5035745;28;20524;-70
2024/01/07 01:23:12;;;;;;;0.40;0.40;;;3.70;99.90;;;;;;5043922;28;20063;-71
2024/01/07 01:25:39;;;;;;;2.72;0.55;;;3.70;99.90;;;;;;5042203;28;20067;-73
2024/01/07 01:28:05;;;;;;;0.10;0.10;;;3.60;99.90;;;;;;5039597;28;20124;-71
2024/01/07 01:30:31;;;;;;;0.43;0.20;;;3.50;99.90;;;;;;5042043;28;20039;-72
2024/01/07 01:32:57;;;;;;;0.10;0.10;;;3.50;99.90;;;;;;5038757;28;20029;-71
2024/01/07 01:35:23;;;;;;;1.40;0.45;;;3.40;99.90;;;;;;5043058;28;20056;-73
2024/01/07 01:37:49;;;;;;;0.20;0.20;;;3.30;99.90;;;;;;5044310;28;20095;-72
2024/01/07 01:40:16;;;;;;;0.90;0.70;;;3.20;99.90;;;;;;5036041;28;20512;-70
2024/01/07 01:42:43;;;;;;;0.32;0.32;;;3.10;99.90;;;;;;5042844;28;21543;-72
2024/01/07 01:45:09;;;;;;;0.47;0.30;;;3.10;99.90;;;;;;5040323;28;20083;-71
2024/01/07 01:47:35;;;;;;;1.27;0.32;;;3.00;99.90;;;;;;5039253;28;20029;-71
2024/01/07 01:50:02;;;;;;;0.10;0.10;;;2.90;99.90;;;;;;5040175;28;20130;-71
2024/01/07 01:52:27;;;;;;;0.43;0.43;;;2.90;99.90;;;;;;5039916;28;20493;-71
2024/01/07 01:54:54;;;;;;;0.85;0.15;;;2.90;99.90;;;;;;5040561;28;20078;-71
2024/01/07 01:57:22;;;;;;;0.30;0.30;;;2.90;99.90;;;;;;5045063;28;20536;-70
2024/01/07 01:59:48;;;;;;;2.53;0.55;;;3.00;99.90;;;;;;5041393;28;20036;-71
2024/01/07 02:02:14;;;;;;;0.00;0.00;;;3.00;99.90;;;;;;5041331;28;20033;-71
2024/01/07 02:04:40;;;;;;;0.32;0.25;;;3.00;99.90;;;;;;5042265;28;20370;-70
2024/01/07 02:07:06;;;;;;;12.10;1.27;;;3.00;99.90;;;;;;5037606;28;20047;-71
2024/01/07 02:09:31;;;;;;;0.20;0.20;;;3.00;99.90;;;;;;5042646;28;20037;-71
2024/01/07 02:12:05;;;;;;;0.08;0.08;;;3.10;99.90;;;;;;5024354;28;20119;-71
2024/01/07 02:14:31;;;;;;;0.03;0.00;;;3.00;99.90;;;;;;5038441;28;20028;-71
2024/01/07 02:16:57;;;;;;;0.45;0.45;;;3.00;99.90;;;;;;5042804;28;20113;-71
2024/01/07 02:19:22;;;;;;;0.47;0.35;;;2.90;99.90;;;;;;5039384;28;20151;-72
2024/01/07 02:21:50;;;;;;;0.20;0.20;;;2.80;99.90;;;;;;5038396;28;20041;-71
2024/01/07 02:24:17;;;;;;;0.30;0.22;;;2.80;99.90;;;;;;5043749;28;20029;-71
2024/01/07 02:26:42;;;;;;;0.45;0.32;;;2.70;99.90;;;;;;5038111;28;20039;-70
2024/01/07 02:29:08;;;;;;;0.32;0.15;;;2.60;99.90;;;;;;5042458;28;20029;-71
2024/01/07 02:31:34;;;;;;;0.20;0.20;;;2.70;99.90;;;;;;5041556;28;20051;-72
2024/01/07 02:33:59;;;;;;;1.08;0.10;;;2.60;99.90;;;;;;5033668;28;20147;-70
2024/01/07 02:36:25;;;;;;;0.65;0.55;;;2.50;99.90;;;;;;5039538;28;20111;-71
2024/01/07 02:38:50;;;;;;;0.20;0.20;;;2.40;99.90;;;;;;5042868;28;20116;-71
2024/01/07 02:41:16;;;;;;;0.20;0.20;;;2.40;99.90;;;;;;5039484;28;20826;-71
2024/01/07 02:43:42;;;;;;;0.10;0.10;;;2.30;99.90;;;;;;5041815;28;20037;-71
2024/01/07 02:46:08;;;;;;;0.30;0.20;;;2.40;99.90;;;;;;5037929;28;20079;-71
2024/01/07 02:48:34;;;;;;;0.20;0.15;;;2.40;99.90;;;;;;5040263;28;20091;-70
2024/01/07 02:51:00;;;;;;;2.28;0.40;;;2.40;99.90;;;;;;5040412;28;20713;-71
2024/01/07 02:53:26;;;;;;;3.08;0.70;;;2.40;99.90;;;;;;5037015;28;20033;-71
2024/01/07 02:55:51;;;;;;;0.10;0.10;;;2.40;99.90;;;;;;5037508;28;20029;-70
2024/01/07 02:58:17;;;;;;;0.50;0.40;;;2.50;99.90;;;;;;5042220;28;20094;-72
2024/01/07 03:00:43;;;;;;;0.35;0.13;;;2.50;99.90;;;;;;5035536;28;20516;-71
2024/01/07 03:03:08;;;;;;;0.10;0.10;;;2.40;99.90;;;;;;5038158;28;20069;-71
2024/01/07 03:05:34;;;;;;;0.82;0.30;;;2.30;99.90;;;;;;5038960;28;20017;-70
2024/01/07 03:08:00;;;;;;;12.15;0.75;;;2.30;99.90;;;;;;5031279;28;20037;-72
2024/01/07 03:10:26;;;;;;;0.22;0.22;;;2.30;99.90;;;;;;5038693;28;20029;-73
2024/01/07 03:12:52;;;;;;;0.50;0.40;;;2.30;99.90;;;;;;5039717;28;20057;-70
2024/01/07 03:15:17;;;;;;;0.38;0.38;;;2.30;99.90;;;;;;5034016;28;20172;-71
2024/01/07 03:17:43;;;;;;;0.00;0.00;;;2.20;99.90;;;;;;5041282;28;20051;-70
2024/01/07 03:20:10;;;;;;;0.38;0.38;;;2.20;99.90;;;;;;5040880;28;20037;-71
2024/01/07 03:22:35;;;;;;;0.20;0.20;;;2.20;99.90;;;;;;5033934;28;20671;-71
2024/01/07 03:25:01;;;;;;;0.85;0.43;;;2.20;99.90;;;;;;5040789;28;20061;-71
2024/01/07 03:27:27;;;;;;;0.57;0.57;;;2.30;99.90;;;;;;5049367;28;20033;-69
2024/01/07 03:29:52;;;;;;;0.20;0.20;;;2.20;99.90;;;;;;5054600;28;20024;-70
2024/01/07 03:32:18;;;;;;;0.75;0.73;;;2.20;99.90;;;;;;5043767;28;20136;-71
2024/01/07 03:34:44;;;;;;;0.10;0.10;;;;;;;;;;5038258;28;20092;-70
2024/01/07 03:37:10;;;;;;;0.73;0.73;;;2.30;99.90;;;;;;5039819;28;20033;-71
2024/01/07 03:39:35;;;;;;;1.27;0.77;;;2.30;99.90;;;;;;5041202;28;20055;-71
2024/01/07 03:42:11;;;;;;;0.70;0.30;;;;;;;;;;5034286;28;20462;-72
2024/01/07 03:44:39;;;;;;;0.52;0.28;;;;;;;;;;5042389;28;20039;-71
2024/01/07 03:47:08;;;;;;;0.70;0.70;;;;;;;;;;5040447;28;20025;-72
2024/01/07 03:49:34;;;;;;;0.15;0.15;;;;;;;;;;5034954;28;20202;-71
2024/01/07 03:52:00;;;;;;;0.30;0.25;;;;;;;;;;5039783;28;20161;-71
2024/01/07 03:54:25;;;;;;;2.20;0.32;;;2.10;99.90;;;;;;5037971;28;20048;-70
2024/01/07 03:56:51;;;;;;;0.98;0.82;;;2.00;99.90;;;;;;5038045;28;20095;-71
2024/01/07 03:59:17;;;;;;;0.30;0.30;;;1.90;99.90;;;;;;5042063;28;20413;-71
2024/01/07 04:01:42;;;;;;;0.10;0.10;;;1.80;99.90;;;;;;5035398;28;20120;-70
2024/01/07 04:04:08;;;;;;;1.23;0.57;;;1.70;99.90;;;;;;5039091;28;21101;-72
2024/01/07 04:06:33;;;;;;;0.52;0.45;;;1.70;99.90;;;;;;5042755;28;21524;-71
2024/01/07 04:08:59;;;;;;;0.08;0.08;;;1.70;99.90;;;;;;5024846;28;20056;-70
2024/01/07 04:11:25;;;;;;;0.28;0.28;;;1.60;99.90;;;;;;5037898;28;20525;-71
2024/01/07 04:13:50;;;;;;;0.50;0.30;;;1.60;99.90;;;;;;5039666;28;20203;-71
2024/01/07 04:16:17;;;;;;;0.30;0.30;;;1.60;99.90;;;;;;5021928;28;20060;-71
2024/01/07 04:18:43;;;;;;;0.20;0.20;;;1.60;99.90;;;;;;5039125;28;20033;-71
2024/01/07 04:21:10;;;;;;;0.10;0.10;;;1.60;99.90;;;;;;5037976;28;20095;-70
2024/01/07 04:23:35;;;;;;;0.65;0.38;;;1.60;99.90;;;;;;5035371;28;20049;-72
2024/01/07 04:26:01;;;;;;;1.73;0.80;;;1.50;99.90;;;;;;5039741;28;20437;-71
2024/01/07 04:28:27;;;;;;;0.45;0.45;;;1.50;99.90;;;;;;5039556;28;20851;-70
2024/01/07 04:30:53;;;;;;;0.45;0.32;;;1.60;99.90;;;;;;5040972;28;20037;-71
2024/01/07 04:33:18;;;;;;;0.15;0.15;;;1.60;99.90;;;;;;5042569;28;20037;-70
2024/01/07 04:35:45;;;;;;;0.20;0.13;;;1.50;99.90;;;;;;5038466;28;20477;-70
2024/01/07 04:38:10;;;;;;;0.70;0.70;;;1.50;99.90;;;;;;5042131;28;20539;-71
2024/01/07 04:40:36;;;;;;;0.10;0.10;;;1.50;99.90;;;;;;5039712;28;20036;-71
2024/01/07 04:43:02;;;;;;;0.40;0.40;;;1.50;99.90;;;;;;5036376;28;20401;-71
2024/01/07 04:45:27;;;;;;;0.30;0.30;;;1.50;99.90;;;;;;5040190;28;20032;-71
2024/01/07 04:47:53;;;;;;;1.88;0.25;;;1.40;99.90;;;;;;5040134;28;20032;-72
2024/01/07 04:50:19;;;;;;;0.15;0.15;;;1.40;99.90;;;;;;5038485;28;20025;-71
2024/01/07 04:52:46;;;;;;;0.55;0.40;;;1.50;99.90;;;;;;5041401;28;20029;-71
2024/01/07 04:55:12;;;;;;;0.43;0.43;;;1.50;99.90;;;;;;5040681;28;20128;-70
2024/01/07 04:57:37;;;;;;;0.10;0.10;;;1.60;99.90;;;;;;5039969;28;20120;-71
2024/01/07 05:00:04;;;;;;;1.13;0.57;;;1.60;99.90;;;;;;5044054;28;20055;-70
2024/01/07 05:02:29;;;;;;;0.63;0.63;;;1.60;99.90;;;;;;5036193;28;20037;-71
2024/01/07 05:04:55;;;;;;;0.43;0.43;;;1.60;99.90;;;;;;5042002;28;20036;-71
2024/01/07 05:07:21;;;;;;;0.47;0.40;;;1.70;99.90;;;;;;5044360;28;20025;-72
2024/01/07 05:09:46;;;;;;;3.50;0.75;;;1.60;99.90;;;;;;5038109;28;20037;-71
2024/01/07 05:12:12;;;;;;;0.08;0.08;;;1.60;99.90;;;;;;5040168;28;20082;-71
2024/01/07 05:14:38;;;;;;;0.10;0.10;;;1.60;99.90;;;;;;5038877;28;20726;-71
2024/01/07 05:17:04;;;;;;;0.63;0.63;;;1.50;99.90;;;;;;5036398;28;20064;-70
2024/01/07 05:19:30;;;;;;;0.65;0.28;;;1.50;99.90;;;;;;5037886;28;20120;-70
2024/01/07 05:21:56;;;;;;;1.95;1.23;;;1.50;99.90;;;;;;5035954;28;20048;-71
2024/01/07 05:24:22;;;;;;;0.40;0.28;;;1.50;99.90;;;;;;5037164;28;20113;-70
2024/01/07 05:26:47;;;;;;;0.30;0.17;;;1.50;99.90;;;;;;5040752;28;21528;-71
2024/01/07 05:29:13;;;;;;;2.45;0.45;;;1.40;99.90;;;;;;5036959;28;20035;-70
2024/01/07 05:31:40;;;;;;;0.10;0.10;;;1.30;99.90;;;;;;5043121;28;20052;-70
2024/01/07 05:34:06;;;;;;;0.10;0.10;;;1.30;99.90;;;;;;5044018;28;20025;-71
2024/01/07 05:36:31;;;;;;;1.20;0.80;;;1.30;99.90;;;;;;5036129;28;20037;-70
2024/01/07 05:38:57;;;;;;;0.95;0.52;;;1.30;99.90;;;;;;5040904;28;20496;-71
2024/01/07 05:41:22;;;;;;;0.00;0.00;;;1.30;99.90;;;;;;5038116;28;20566;-70
2024/01/07 05:43:48;;;;;;;0.10;0.10;;;1.30;99.90;;;;;;5036725;28;20638;-71
2024/01/07 05:46:14;;;;;;;0.05;0.05;;;1.30;99.90;;;;;;5039368;28;20515;-71
2024/01/07 05:48:43;;;;;;;0.32;0.15;;;1.30;99.90;;;;;;5038494;28;20040;-70
2024/01/07 05:51:09;;;;;;;0.55;0.55;;;1.20;99.90;;;;;;5037636;28;21400;-71
2024/01/07 05:53:34;;;;;;;0.00;0.00;;;1.20;99.90;;;;;;5037679;28;20043;-71
2024/01/07 05:56:00;;;;;;;0.10;0.10;;;1.20;99.90;;;;;;5036149;28;20037;-71
2024/01/07 05:58:26;;;;;;;0.32;0.32;;;1.10;99.90;;;;;;5040025;28;20040;-71
2024/01/07 06:00:51;;;;;;;0.20;0.20;;;1.10;99.90;;;;;;5044386;28;20028;-71
2024/01/07 06:03:18;;;;;;;0.32;0.32;;;1.00;99.90;;;;;;5055131;28;21184;-70
2024/01/07 06:05:44;;;;;;;0.65;0.25;;;1.00;99.90;;;;;;5040308;28;20195;-70
2024/01/07 06:08:10;;;;;;;0.13;0.10;;;1.10;99.90;;;;;;5040181;28;20025;-70
2024/01/07 06:10:35;;;;;;;0.20;0.17;;;1.20;99.90;;;;;;5039354;28;20029;-70
2024/01/07 06:13:03;;;;;;;7.55;1.30;;;1.30;99.90;;;;;;5045073;28;20381;-71
2024/01/07 06:15:28;;;;;;;0.10;0.10;;;1.50;99.90;;;;;;5040847;28;20037;-71
2024/01/07 06:17:55;;;;;;;0.68;0.68;;;1.60;99.90;;;;;;5044852;28;20036;-71
2024/01/07 06:20:21;;;;;;;0.10;0.10;;;1.70;99.90;;;;;;5044638;28;21666;-71
2024/01/07 06:22:46;;;;;;;2.47;1.17;;;1.70;99.90;;;;;;5038183;28;20076;-71
2024/01/07 06:25:12;;;;;;;0.20;0.20;;;1.70;99.90;;;;;;5041211;28;20037;-71
2024/01/07 06:27:39;;;;;;;1.38;0.40;;;1.70;99.90;;;;;;5042415;28;20025;-70
2024/01/07 06:30:06;;;;;;;0.10;0.10;;;1.80;99.90;;;;;;5034157;28;20090;-70
2024/01/07 06:32:32;;;;;;;0.22;0.17;;;1.90;99.90;;;;;;5042174;28;20054;-70
2024/01/07 06:34:58;;;;;;;0.10;0.10;;;1.90;99.90;;;;;;5043159;28;20032;-71
2024/01/07 06:37:24;;;;;;;0.17;0.17;;;1.90;99.90;;;;;;5040089;28;20072;-71
2024/01/07 06:39:50;;;;;;;0.57;0.52;;;1.90;99.90;;;;;;5043950;28;20060;-71
2024/01/07 06:42:15;;;;;;;0.08;0.08;;;1.80;99.90;;;;;;5039967;28;20108;-71
2024/01/07 06:44:41;;;;;;;2.72;0.52;;;1.80;99.90;;;;;;5041999;28;20734;-70
2024/01/07 06:47:07;;;;;;;1.05;0.40;;;1.90;99.90;;;;;;5043601;28;20039;-71
2024/01/07 06:49:33;;;;;;;0.17;0.17;;;1.90;99.90;;;;;;5040830;28;20021;-70
2024/01/07 06:51:58;;;;;;;1.00;0.85;;;1.80;99.90;;;;;;5041122;28;20040;-71
2024/01/07 06:54:25;;;;;;;2.45;0.55;;;1.80;99.90;;;;;;5043325;28;20047;-71
2024/01/07 06:56:51;;;;;;;0.30;0.30;;;1.80;99.90;;;;;;5039559;28;20040;-70
2024/01/07 06:59:16;;;;;;;0.28;0.28;;;1.80;99.90;;;;;;5042433;28;20041;-72
2024/01/07 07:01:42;;;;;;;0.47;0.17;;;1.70;99.90;;;;;;5039885;28;20033;-71
2024/01/07 07:04:08;;;;;;;0.10;0.10;;;1.70;99.90;;;;;;5039457;28;20032;-71
2024/01/07 07:06:34;;;;;;;0.30;0.30;;;1.60;99.90;;;;;;5041132;28;20036;-72
2024/01/07 07:09:00;;;;;;;0.43;0.43;;;1.50;99.90;;;;;;5040700;28;20056;-71
2024/01/07 07:11:26;;;;;;;1.65;0.40;;;1.40;99.90;;;;;;5039123;28;20414;-70
2024/01/07 07:13:51;;;;;;;1.13;1.02;;;1.30;99.90;;;;;;5041453;28;20041;-72
2024/01/07 07:16:17;;;;;;;0.08;0.08;;;1.30;99.90;;;;;;5038233;28;20496;-70
2024/01/07 07:18:43;;;;;;;0.20;0.20;;;1.30;99.90;;;;;;5043934;28;20480;-71
2024/01/07 07:21:08;;;;;;;0.73;0.40;;;1.40;99.90;;;;;;5043945;28;20131;-71
2024/01/07 07:23:34;;;;;;;0.63;0.40;;;1.40;99.90;;;;;;5032717;28;20041;-71
2024/01/07 07:25:59;;;;;;;0.28;0.28;;;1.40;99.90;;;;;;5042363;28;20495;-71
2024/01/07 07:28:25;;;;;;;1.65;0.47;;;1.50;99.90;;;;;;5038253;28;20021;-70
2024/01/07 07:30:52;;;;;;;0.52;0.52;;;1.50;99.90;;;;;;5033202;28;20087;-71
2024/01/07 07:33:18;;;;;;;0.88;0.25;;;1.50;99.90;;;;;;5039166;28;20032;-72
2024/01/07 07:35:44;;;;;;;0.73;0.65;;;1.60;99.90;;;;;;5039460;28;20045;-71
2024/01/07 07:38:11;;;;;;;0.22;0.22;;;1.60;99.90;;;;;;5039492;28;20124;-70
2024/01/07 07:40:37;;;;;;;0.43;0.43;;;1.60;99.90;;;;;;5041336;28;20040;-71
2024/01/07 07:43:02;;;;;;;0.73;0.73;;;1.60;99.90;;;;;;5038808;28;20038;-71
2024/01/07 07:45:28;;;;;;;0.20;0.20;;;1.60;99.90;;;;;;5040101;28;20028;-71
2024/01/07 07:47:54;;;;;;;2.90;0.20;;;1.60;99.90;;;;;;5042330;28;20159;-73
2024/01/07 07:50:19;;;;;;;0.10;0.10;;;1.60;99.90;;;;;;5035530;28;20036;-70
2024/01/07 07:52:45;;;;;;;1.23;1.13;;;1.60;99.90;;;;;;5041724;28;20408;-71
2024/01/07 07:55:11;;;;;;;0.40;0.40;;;1.70;99.90;;;;;;5039856;28;20525;-70
2024/01/07 07:57:38;;;;;;;0.22;0.22;;;1.70;99.90;;;;;;5038091;28;20075;-71
2024/01/07 08:00:05;;;;;;;0.40;0.40;;;1.70;99.90;;;;;;5040303;28;20036;-70
2024/01/07 08:02:31;;;;;;;0.17;0.15;;;1.70;99.90;;;;;;5037074;28;20105;-69
2024/01/07 08:04:56;;;;;;;0.20;0.20;;;1.70;99.90;;;;;;5039102;28;20083;-70
2024/01/07 08:07:22;;;;;;;0.10;0.10;;;1.70;99.90;;;;;;5041969;28;20031;-71
2024/01/07 08:09:48;;;;;;;0.10;0.10;;;1.70;99.90;;;;;;5040122;28;20057;-71
2024/01/07 08:12:13;;;;;;;1.35;0.43;;;1.80;99.90;;;;;;5041414;28;20045;-71
2024/01/07 08:14:41;;;;;;;0.28;0.28;;;1.80;99.90;;;;;;5043053;28;20033;-71
2024/01/07 08:17:07;;;;;;;0.63;0.50;;;1.80;99.90;;;;;;5036819;28;20037;-71
2024/01/07 08:19:33;;;;;;;1.23;0.22;;;1.80;99.90;;;;;;5042578;28;20045;-71
2024/01/07 08:21:58;;;;;;;0.50;0.50;;;1.80;99.90;;;;;;5040994;28;21477;-72
2024/01/07 08:24:24;;;;;;;0.10;0.10;;;1.90;99.90;;;;;;5036760;28;20477;-71
2024/01/07 08:26:50;;;;;;;1.15;1.02;;;1.90;99.90;;;;;;5040607;28;20103;-71
2024/01/07 08:29:16;;;;;;;1.20;0.35;;;1.80;99.90;;;;;;5039762;28;21478;-70
2024/01/07 08:31:42;;;;;;;0.55;0.22;;;1.80;99.90;;;;;;5036817;28;20044;-70
2024/01/07 08:34:08;;;;;;;0.10;0.10;;;1.90;99.90;;;;;;5045624;28;20098;-70
2024/01/07 08:36:33;;;;;;;0.10;0.10;;;2.00;99.90;;;;;;5058560;28;20033;-70
2024/01/07 08:39:00;;;;;;;0.60;0.60;;;2.00;99.90;;;;;;5044627;28;20648;-70
2024/01/07 08:41:26;;;;;;;0.10;0.10;;;2.00;99.90;;;;;;5039500;28;20040;-71
2024/01/07 08:43:52;;;;;;;0.10;0.10;;;2.10;99.90;;;;;;5035514;28;20102;-71
2024/01/07 08:46:20;;;;;;;0.38;0.38;;;2.10;99.90;;;;;;5023206;28;20482;-71
2024/01/07 08:48:47;;;;;;;0.73;0.43;;;2.10;99.90;;;;;;5040122;28;20442;-70
2024/01/07 08:51:12;;;;;;;0.17;0.17;;;2.10;99.90;;;;;;5034460;28;20401;-70
2024/01/07 08:53:38;;;;;;;0.43;0.28;;;2.20;99.90;;;;;;5038590;28;20029;-70
2024/01/07 08:56:04;;;;;;;0.98;0.60;;;2.20;99.90;;;;;;5037130;28;21945;-70
2024/01/07 08:58:29;;;;;;;0.30;0.10;;;2.20;99.90;;;;;;5036417;28;20029;-70
2024/01/07 09:00:55;;;;;;;0.10;0.10;;;2.20;99.90;;;;;;5038788;28;20041;-70
2024/01/07 09:03:21;;;;;;;0.10;0.10;;;2.30;99.90;;;;;;5036949;28;20040;-71
2024/01/07 09:05:46;;;;;;;11.25;0.40;;;2.30;99.90;;;;;;5036943;28;20089;-69
2024/01/07 09:08:14;;;;;;;5.30;0.77;;;2.30;99.90;;;;;;5038950;28;20400;-70
2024/01/07 09:10:40;;;;;;;0.17;0.15;;;2.30;99.90;;;;;;5034523;28;20035;-70
2024/01/07 09:13:06;;;;;;;0.43;0.40;;;2.40;99.90;;;;;;5036410;28;20064;-72
2024/01/07 09:15:32;;;;;;;0.30;0.13;;;2.40;99.90;;;;;;5039260;28;20136;-70
2024/01/07 09:17:57;;;;;;;0.22;0.22;;;2.40;99.90;;;;;;5036480;28;20033;-70
2024/01/07 09:20:23;;;;;;;0.17;0.17;;;2.40;99.90;;;;;;5039320;28;20037;-70
2024/01/07 09:22:49;;;;;;;2.45;0.73;;;2.40;99.90;;;;;;5040100;28;20048;-71
2024/01/07 09:25:16;;;;;;;0.40;0.10;;;2.40;99.90;;;;;;5036259;28;20029;-70
2024/01/07 09:27:42;;;;;;;0.08;0.08;;;2.40;99.90;;;;;;5038155;28;20053;-71
2024/01/07 09:30:11;;;;;;;3.05;0.50;;;2.50;99.90;;;;;;5034302;28;20720;-69
2024/01/07 09:32:37;;;;;;;0.10;0.10;;;2.50;99.90;;;;;;5039942;28;20055;-70
2024/01/07 09:35:05;;;;;;;0.20;0.20;;;2.50;99.90;;;;;;5042459;28;20512;-70
2024/01/07 09:37:31;;;;;;;2.83;0.30;;;2.60;99.90;;;;;;5036205;28;20037;-71
2024/01/07 09:39:57;;;;;;;0.17;0.17;;;2.60;99.90;;;;;;5039019;28;20033;-70
2024/01/07 09:42:22;;;;;;;0.90;0.30;;;2.70;99.90;;;;;;5039122;28;20087;-70
2024/01/07 09:44:50;;;;;;;0.20;0.20;;;2.80;99.90;;;;;;5039799;28;20037;-71
2024/01/07 09:47:16;;;;;;;0.45;0.32;;;2.90;99.90;;;;;;5044502;28;20032;-70
2024/01/07 09:49:43;;;;;;;5.50;0.50;;;2.80;99.90;;;;;;5043019;28;20029;-71
2024/01/07 09:52:11;;;;;;;0.10;0.10;;;2.90;99.90;;;;;;5042431;28;20036;-70
2024/01/07 09:54:38;;;;;;;0.22;0.22;;;3.00;99.90;;;;;;5044900;28;20029;-71
2024/01/07 09:57:06;;;;;;;0.13;0.13;;;3.00;99.90;;;;;;5039274;28;20036;-70
2024/01/07 09:59:33;;;;;;;5.03;0.57;;;3.00;99.90;;;;;;5040468;28;20120;-70
2024/01/07 10:01:59;;;;;;;0.50;0.50;;;3.00;99.90;;;;;;5041057;28;20358;-71
2024/01/07 10:04:27;;;;;;;5.72;0.55;;;3.10;99.90;;;;;;5035922;28;20029;-72
2024/01/07 10:06:54;;;;;;;3.83;0.40;;;3.20;99.90;;;;;;5042162;28;20111;-71
2024/01/07 10:09:21;;;;;;;0.10;0.10;;;3.30;99.90;;;;;;5042217;28;20074;-70
2024/01/07 10:11:47;;;;;;;0.17;0.17;;;3.40;99.90;;;;;;5040170;28;20032;-72
2024/01/07 10:14:13;;;;;;;0.55;0.47;;;3.40;99.90;;;;;;5039858;28;20037;-71
2024/01/07 10:16:39;;;;;;;0.20;0.20;;;3.40;99.90;;;;;;5039802;28;20044;-70
2024/01/07 10:19:05;;;;;;;0.40;0.22;;;3.50;99.90;;;;;;5040912;28;20033;-71
2024/01/07 10:21:30;;;;;;;0.28;0.28;;;3.50;99.90;;;;;;5041150;28;20048;-71
2024/01/07 10:24:13;;;;;;;2.15;0.60;;;3.60;99.90;;;;;;5040467;28;20052;-71
2024/01/07 10:26:40;;;;;;;0.60;0.55;;;3.60;99.90;;;;;;5041904;28;20025;-72
2024/01/07 10:29:07;;;;;;;2.35;0.90;;;3.70;99.90;;;;;;5043707;28;20070;-70
2024/01/07 10:31:33;;;;;;;0.10;0.10;;;3.70;99.90;;;;;;5037574;28;20455;-71
2024/01/07 10:33:58;;;;;;;0.80;0.20;;;3.70;99.90;;;;;;5039337;28;20033;-71
2024/01/07 10:36:25;;;;;;;0.40;0.40;;;3.80;99.90;;;;;;5042344;28;20708;-71
2024/01/07 10:38:51;;;;;;;0.95;0.28;;;3.90;99.90;;;;;;5038146;28;20763;-70
2024/01/07 10:41:20;;;;;;;0.43;0.40;;;3.90;99.90;;;;;;5041899;28;20159;-72
2024/01/07 10:43:47;;;;;;;0.68;0.68;;;3.90;99.90;;;;;;5039095;28;20036;-72
2024/01/07 10:46:14;;;;;;;1.55;0.82;;;4.00;99.90;;;;;;5040092;28;20041;-71
2024/01/07 10:48:54;;;;;;;2.00;0.70;;;4.00;99.90;;;;;;5044016;28;20040;-73
2024/01/07 10:51:21;;;;;;;0.52;0.32;;;4.00;99.90;;;;;;5039428;28;20029;-71
2024/01/07 10:53:53;;;;;;;6.60;0.55;;;4.10;99.90;;;;;;5042971;28;20043;-70
2024/01/07 10:56:23;;;;;;;0.52;0.20;;;4.20;99.90;;;;;;5042978;28;20032;-72
2024/01/07 10:58:52;;;;;;;2.70;0.20;;;4.20;99.90;;;;;;5037000;28;20057;-71
2024/01/07 11:01:19;;;;;;;0.35;0.30;;;4.30;99.90;;;;;;5039842;28;20087;-72
2024/01/07 11:03:45;;;;;;;1.95;0.40;;;4.40;99.90;;;;;;5036820;28;21602;-70
2024/01/07 11:06:36;;;;;;;0.40;0.40;;;4.40;99.90;;;;;;5040246;28;20029;-71
2024/01/07 11:09:23;;;;;;;3.42;0.35;;;4.50;99.90;;;;;;5045101;28;20029;-70
2024/01/07 11:11:50;;;;;;;0.52;0.50;;;4.50;99.90;;;;;;5046755;28;20025;-70
2024/01/07 11:14:36;;;;;;;0.30;0.30;;;4.60;99.90;;;;;;5050002;28;20029;-70
2024/01/07 11:17:03;;;;;;;2.88;0.60;;;4.60;99.90;;;;;;5036831;28;20031;-70
2024/01/07 11:19:29;;;;;;;0.52;0.17;;;4.70;99.90;;;;;;5041629;28;20138;-71
2024/01/07 11:22:24;;;;;;;1.48;0.47;;;4.70;99.90;;;;;;5042377;28;20055;-71
2024/01/07 11:24:51;;;;;;;1.13;0.43;;;4.70;99.50;;;;;;5036696;28;20443;-71
2024/01/07 11:27:17;;;;;;;4.50;0.20;;;4.80;99.90;;;;;;5043208;28;20060;-72
2024/01/07 11:29:43;;;;;;;2.80;0.35;;;4.80;99.70;;;;;;5042145;28;20118;-71
2024/01/07 11:32:14;;;;;;;0.30;0.30;;;4.80;99.10;;;;;;5039441;28;20429;-71
2024/01/07 11:34:43;;;;;;;1.17;0.55;;;4.90;99.10;;;;;;5042098;28;20400;-70
2024/01/07 11:37:12;;;;;;;0.30;0.30;;;4.90;98.90;;;;;;5037699;28;20120;-71
2024/01/07 11:39:39;;;;;;;;;;;4.90;99.00;;;;;;5037603;28;20037;-71
2024/01/07 11:42:05;;;;;;;0.40;0.40;;;4.90;98.40;;;;;;5040024;28;20058;-70
2024/01/07 11:44:34;;;;;;;0.55;0.17;;;4.90;99.20;;;;;;5036657;28;20037;-72
2024/01/07 11:46:59;;;;;;;0.57;0.57;;;5.00;99.10;;;;;;5042067;28;20408;-72
2024/01/07 11:49:25;;;;;;;2.17;0.90;;;5.00;99.10;;;;;;5039612;28;20036;-70
2024/01/07 11:51:51;;;;;;;0.25;0.25;;;5.10;98.40;;;;;;5034557;28;20037;-71
2024/01/07 11:54:18;;;;;;;7.85;0.40;;;5.00;98.50;;;;;;5041127;28;20044;-70
2024/01/07 11:56:44;;;;;;;0.10;0.10;;;5.10;98.50;;;;;;5041197;28;20033;-71
2024/01/07 11:59:09;;;;;;;0.60;0.60;;;5.10;98.90;;;;;;5039882;28;21143;-71
2024/01/07 12:01:35;;;;;;;0.20;0.17;;;5.20;98.80;;;;;;5039819;28;20032;-71
2024/01/07 12:04:01;;;;;;;1.08;0.30;;;5.10;98.20;;;;;;5037510;28;20075;-72
2024/01/07 12:06:26;;;;;;;0.00;0.00;;;5.10;97.70;;;;;;5038434;28;20107;-71
2024/01/07 12:08:52;;;;;;;0.43;0.20;;;5.20;98.30;;;;;;5041294;28;20025;-69
2024/01/07 12:11:19;;;;;;;1.45;0.50;;;5.20;98.50;;;;;;5037205;28;20021;-71
2024/01/07 12:13:45;;;;;;;7.15;0.40;;;5.30;98.30;;;;;;5041673;28;20044;-71
2024/01/07 12:16:11;;;;;;;0.20;0.20;;;5.30;97.80;;;;;;5044503;28;20420;-71
2024/01/07 12:18:38;;;;;;;0.20;0.20;;;5.30;97.10;;;;;;5036363;28;20083;-71
2024/01/07 12:21:04;;;;;;;0.17;0.17;;;5.20;97.00;;;;;;5043664;28;20529;-70
2024/01/07 12:23:36;;;;;;;0.30;0.20;;;5.20;96.80;;;;;;5037770;28;20140;-70
2024/01/07 12:26:10;;;;;;;1.25;0.35;;;5.20;97.10;;;;;;5037596;28;20036;-70
2024/01/07 12:28:37;;;;;;;0.70;0.38;;;5.20;97.30;;;;;;5044118;28;20082;-70
2024/01/07 12:31:04;;;;;;;0.30;0.30;;;5.30;97.80;;;;;;5039087;28;20859;-69
2024/01/07 12:33:31;;;;;;;0.10;0.10;;;5.30;97.40;;;;;;5041868;28;20085;-71
2024/01/07 12:35:57;;;;;;;2.28;1.17;;;5.30;97.80;;;;;;5041533;28;20424;-70
2024/01/07 12:38:25;;;;;;;0.40;0.32;;;5.30;97.70;;;;;;5037529;28;20060;-70
2024/01/07 12:40:52;;;;;;;7.03;1.25;;;5.40;97.10;;;;;;5039312;28;20047;-71
2024/01/07 12:43:17;;;;;;;0.43;0.22;;;5.40;97.10;;;;;;5041495;28;20493;-71
2024/01/07 12:45:44;;;;;;;0.20;0.20;;;5.40;96.80;;;;;;5036298;28;20029;-70
2024/01/07 12:48:09;;;;;;;4.50;0.77;;;5.50;97.30;;;;;;5038171;28;20037;-70
2024/01/07 12:50:35;;;;;;;0.20;0.20;;;5.60;97.10;;;;;;5038205;28;20056;-70
2024/01/07 12:53:01;;;;;;;0.80;0.50;;;5.60;96.20;;;;;;5037489;28;20112;-70
2024/01/07 12:55:26;;;;;;;1.58;0.57;;;5.70;96.50;;;;;;5038130;28;20040;-71